createdAt,value
2023-03-10T00:01:24.109Z,0.89
2023-03-10T00:03:55.386Z,0.88
2023-03-10T00:06:29.368Z,0.88
2023-03-10T00:08:59.432Z,0.89
2023-03-10T00:11:28.156Z,0.89
2023-03-10T00:13:56.722Z,0.89
2023-03-10T00:16:27.336Z,0.90
2023-03-10T00:18:58.301Z,0.92
2023-03-10T00:21:28.018Z,0.98
2023-03-10T00:23:56.517Z,0.99
2023-03-10T00:26:28.087Z,0.97
2023-03-10T00:28:57.332Z,1.02
2023-03-10T00:31:28.336Z,1.01
2023-03-10T00:33:59.153Z,1.01
2023-03-10T00:36:29.399Z,1.03
2023-03-10T00:39:01.131Z,1.04
2023-03-10T00:41:31.210Z,1.00
2023-03-10T00:44:03.037Z,1.05
2023-03-10T00:46:33.471Z,1.06
2023-03-10T00:49:03.919Z,1.09
2023-03-10T00:51:32.633Z,1.10
2023-03-10T00:54:03.386Z,1.13
2023-03-10T00:56:33.087Z,1.16
2023-03-10T00:59:02.151Z,1.15
2023-03-10T01:01:32.948Z,1.15
2023-03-10T01:04:05.254Z,1.14
2023-03-10T01:06:34.999Z,1.15
2023-03-10T01:09:04.092Z,1.15
2023-03-10T01:11:33.546Z,1.15
2023-03-10T01:14:03.559Z,1.18
2023-03-10T01:16:32.478Z,1.21
2023-03-10T01:19:01.669Z,1.19
2023-03-10T01:21:33.669Z,1.20
2023-03-10T01:24:03.064Z,1.22
2023-03-10T01:26:32.206Z,1.23
2023-03-10T01:29:00.632Z,1.22
2023-03-10T01:31:29.512Z,1.25
2023-03-10T01:33:58.304Z,1.26
2023-03-10T01:36:28.847Z,1.26
2023-03-10T01:38:59.209Z,1.27
2023-03-10T01:41:28.640Z,1.28
2023-03-10T01:43:58.283Z,1.28
2023-03-10T01:46:46.009Z,1.31
2023-03-10T01:49:27.082Z,1.34
2023-03-10T01:52:01.526Z,1.34
2023-03-10T01:54:39.930Z,1.36
2023-03-10T01:57:09.981Z,1.39
2023-03-10T01:59:41.827Z,1.43
2023-03-10T02:02:11.459Z,1.43
2023-03-10T02:04:44.686Z,1.41
2023-03-10T02:07:14.708Z,1.39
2023-03-10T02:09:47.805Z,1.42
2023-03-10T02:12:16.953Z,1.40
2023-03-10T02:14:48.446Z,1.43
2023-03-10T02:17:19.398Z,1.46
2023-03-10T02:20:10.903Z,1.44
2023-03-10T02:22:40.894Z,1.44
2023-03-10T02:25:34.595Z,1.47
2023-03-10T02:28:05.573Z,1.42
2023-03-10T02:30:37.280Z,1.45
2023-03-10T02:33:07.710Z,1.47
2023-03-10T02:35:36.676Z,1.48
2023-03-10T02:38:09.993Z,1.51
2023-03-10T02:40:41.162Z,1.50
2023-03-10T02:43:20.144Z,1.47
2023-03-10T02:45:53.403Z,1.48
2023-03-10T02:48:28.536Z,1.50
2023-03-10T02:50:58.782Z,1.53
2023-03-10T02:53:29.154Z,1.53
2023-03-10T02:55:58.798Z,1.52
2023-03-10T02:58:33.377Z,1.53
2023-03-10T03:01:05.068Z,1.51
2023-03-10T03:03:36.753Z,1.55
2023-03-10T03:06:06.847Z,1.57
2023-03-10T03:08:36.129Z,1.58
2023-03-10T03:11:07.099Z,1.59
2023-03-10T03:13:37.407Z,1.57
2023-03-10T03:16:08.407Z,1.54
2023-03-10T03:18:38.601Z,1.53
2023-03-10T03:21:10.685Z,1.48
2023-03-10T03:23:40.141Z,1.47
2023-03-10T03:26:15.699Z,1.48
2023-03-10T03:28:46.547Z,1.49
2023-03-10T03:31:19.141Z,1.48
2023-03-10T03:33:48.228Z,1.50
2023-03-10T03:36:16.849Z,1.49
2023-03-10T03:38:45.445Z,1.51
2023-03-10T03:41:15.808Z,1.51
2023-03-10T03:43:46.541Z,1.51
2023-03-10T03:46:15.363Z,1.51
2023-03-10T03:48:44.088Z,1.52
2023-03-10T03:51:12.977Z,1.51
2023-03-10T03:53:43.735Z,1.50
2023-03-10T03:56:13.241Z,1.48
2023-03-10T03:58:47.220Z,1.49
2023-03-10T04:01:18.123Z,1.51
2023-03-10T04:03:53.613Z,1.52
2023-03-10T04:06:22.790Z,1.49
2023-03-10T04:08:52.154Z,1.47
2023-03-10T04:11:23.118Z,1.42
2023-03-10T04:13:54.464Z,1.44
2023-03-10T04:16:24.116Z,1.46
2023-03-10T04:18:53.155Z,1.46
2023-03-10T04:21:22.076Z,1.50
2023-03-10T04:23:53.589Z,1.53
2023-03-10T04:26:26.776Z,1.57
2023-03-10T04:28:58.616Z,1.58
2023-03-10T04:31:29.281Z,1.59
2023-03-10T04:33:59.600Z,1.58
2023-03-10T04:36:28.954Z,1.62
2023-03-10T04:39:01.034Z,1.62
2023-03-10T04:41:32.487Z,1.63
2023-03-10T04:44:02.685Z,1.62
2023-03-10T04:46:33.037Z,1.59
2023-03-10T04:49:03.964Z,1.57
2023-03-10T04:51:32.725Z,1.53
2023-03-10T04:54:01.457Z,1.53
2023-03-10T04:56:33.294Z,1.51
2023-03-10T04:59:04.508Z,1.52
2023-03-10T05:01:34.415Z,1.53
2023-03-10T05:04:06.819Z,1.54
2023-03-10T05:06:36.403Z,1.56
2023-03-10T05:09:15.530Z,1.56
2023-03-10T05:11:44.585Z,1.57
2023-03-10T05:14:16.588Z,1.58
2023-03-10T05:16:45.607Z,1.59
2023-03-10T05:19:14.349Z,1.62
2023-03-10T05:21:43.025Z,1.62
2023-03-10T05:24:12.154Z,1.65
2023-03-10T05:26:41.892Z,1.68
2023-03-10T05:29:10.586Z,1.70
2023-03-10T05:31:48.520Z,1.76
2023-03-10T05:34:27.052Z,1.80
2023-03-10T05:36:59.555Z,1.84
2023-03-10T05:39:30.908Z,1.88
2023-03-10T05:42:03.888Z,1.90
2023-03-10T05:44:35.891Z,1.90
2023-03-10T05:47:08.646Z,1.89
2023-03-10T05:49:38.873Z,1.93
2023-03-10T05:52:08.966Z,1.97
2023-03-10T05:54:39.777Z,2.02
2023-03-10T05:57:08.274Z,2.04
2023-03-10T05:59:37.840Z,2.07
2023-03-10T06:02:08.491Z,2.11
2023-03-10T06:04:37.003Z,2.15
2023-03-10T06:07:06.113Z,2.19
2023-03-10T06:09:34.941Z,2.24
2023-03-10T06:12:03.577Z,2.30
2023-03-10T06:14:33.037Z,2.33
2023-03-10T06:17:01.733Z,2.35
2023-03-10T06:19:32.199Z,2.40
2023-03-10T06:22:01.041Z,2.46
2023-03-10T06:24:29.867Z,2.56
2023-03-10T06:26:58.485Z,2.62
2023-03-10T06:29:26.937Z,2.62
2023-03-10T06:31:55.924Z,2.65
2023-03-10T06:34:24.532Z,2.62
2023-03-10T06:36:56.435Z,2.62
2023-03-10T06:39:29.042Z,2.64
2023-03-10T06:41:58.163Z,2.68
2023-03-10T06:44:27.457Z,2.74
2023-03-10T06:46:56.034Z,2.80
2023-03-10T06:49:24.486Z,2.88
2023-03-10T06:51:54.742Z,2.94
2023-03-10T06:54:23.476Z,3.04
2023-03-10T06:56:52.158Z,3.14
2023-03-10T06:59:20.788Z,3.23
2023-03-10T07:01:51.838Z,3.31
2023-03-10T07:04:21.034Z,3.33
2023-03-10T07:06:49.796Z,3.43
2023-03-10T07:09:19.609Z,3.52
2023-03-10T07:11:48.265Z,3.63
2023-03-10T07:14:17.373Z,3.77
2023-03-10T07:16:46.530Z,3.88
2023-03-10T07:19:15.233Z,4.02
2023-03-10T07:21:44.202Z,4.20
2023-03-10T07:24:12.793Z,4.26
2023-03-10T07:26:43.047Z,4.28
2023-03-10T07:29:11.585Z,4.30
2023-03-10T07:31:40.152Z,4.42
2023-03-10T07:34:09.261Z,4.56
2023-03-10T07:36:37.675Z,4.68
2023-03-10T07:39:06.267Z,4.78
2023-03-10T07:41:35.213Z,4.87
2023-03-10T07:44:05.364Z,4.90
2023-03-10T07:46:34.057Z,4.94
2023-03-10T07:49:04.475Z,4.94
2023-03-10T07:51:33.867Z,4.95
2023-03-10T07:54:02.440Z,4.96
2023-03-10T07:56:31.004Z,4.97
2023-03-10T07:59:00.922Z,4.89
2023-03-10T08:01:31.368Z,4.81
2023-03-10T08:04:00.046Z,4.85
2023-03-10T08:06:31.131Z,4.83
2023-03-10T08:09:00.798Z,4.85
2023-03-10T08:11:29.649Z,4.83
2023-03-10T08:13:58.390Z,4.82
2023-03-10T08:16:28.819Z,4.76
2023-03-10T08:18:59.061Z,4.80
2023-03-10T08:21:27.516Z,4.85
2023-03-10T08:23:56.667Z,4.94
2023-03-10T08:26:25.052Z,5.11
2023-03-10T08:28:53.545Z,5.21
2023-03-10T08:31:23.434Z,5.26
2023-03-10T08:33:55.980Z,5.28
2023-03-10T08:36:31.485Z,5.30
2023-03-10T08:39:02.418Z,5.32
2023-03-10T08:41:32.612Z,5.34
2023-03-10T08:44:01.690Z,5.38
2023-03-10T08:46:33.916Z,5.42
2023-03-10T08:49:02.933Z,5.44
2023-03-10T08:51:33.047Z,5.47
2023-03-10T08:54:02.042Z,5.57
2023-03-10T08:56:31.021Z,5.61
2023-03-10T08:59:01.162Z,5.66
2023-03-10T09:01:32.312Z,5.68
2023-03-10T09:04:02.683Z,5.72
2023-03-10T09:06:33.079Z,5.74
2023-03-10T09:09:02.265Z,5.76
2023-03-10T09:11:34.136Z,5.82
2023-03-10T09:14:03.327Z,5.93
2023-03-10T09:16:32.967Z,6.06
2023-03-10T09:19:02.675Z,6.24
2023-03-10T09:21:33.956Z,6.34
2023-03-10T09:24:03.495Z,6.40
2023-03-10T09:26:32.398Z,6.52
2023-03-10T09:29:02.214Z,6.64
2023-03-10T09:31:33.283Z,6.71
2023-03-10T09:34:03.236Z,6.71
2023-03-10T09:36:33.453Z,6.68
2023-03-10T09:39:02.577Z,6.67
2023-03-10T09:41:58.267Z,6.71
2023-03-10T09:44:43.024Z,6.85
2023-03-10T09:47:28.356Z,6.93
2023-03-10T09:50:13.087Z,6.98
2023-03-10T09:52:47.984Z,6.99
2023-03-10T09:55:22.341Z,7.01
2023-03-10T09:57:53.781Z,7.08
2023-03-10T10:00:25.609Z,7.10
2023-03-10T10:03:03.777Z,7.12
2023-03-10T10:05:38.182Z,7.14
2023-03-10T10:08:27.350Z,7.19
2023-03-10T10:11:00.912Z,7.24
2023-03-10T10:13:31.323Z,7.33
2023-03-10T10:16:24.432Z,7.46
2023-03-10T10:19:01.730Z,7.63
2023-03-10T10:21:42.700Z,7.72
2023-03-10T10:24:14.755Z,7.80
2023-03-10T10:26:43.186Z,7.94
2023-03-10T10:29:18.252Z,8.07
2023-03-10T10:32:05.986Z,8.21
2023-03-10T10:34:34.983Z,8.34
2023-03-10T10:37:03.977Z,8.54
2023-03-10T10:39:37.421Z,8.72
2023-03-10T10:42:20.397Z,8.85
2023-03-10T10:44:49.272Z,8.95
2023-03-10T10:47:37.104Z,8.99
2023-03-10T10:50:19.358Z,9.04
2023-03-10T10:52:51.811Z,9.10
2023-03-10T10:55:28.681Z,9.24
2023-03-10T10:58:02.119Z,9.36
2023-03-10T11:00:34.526Z,9.49
2023-03-10T11:03:03.350Z,9.60
2023-03-10T11:05:37.823Z,9.62
2023-03-10T11:08:21.400Z,9.68
2023-03-10T11:10:59.407Z,9.79
2023-03-10T11:13:35.537Z,9.90
2023-03-10T11:16:08.371Z,10.09
2023-03-10T11:18:41.794Z,10.27
2023-03-10T11:21:19.940Z,10.56
2023-03-10T11:23:59.055Z,11.55
2023-03-10T11:26:45.700Z,11.88
2023-03-10T11:29:25.033Z,11.92
2023-03-10T11:32:00.440Z,11.78
2023-03-10T11:34:32.141Z,11.75
2023-03-10T11:37:09.870Z,11.65
2023-03-10T11:39:49.291Z,11.52
2023-03-10T11:42:31.971Z,11.35
2023-03-10T11:45:18.522Z,11.24
2023-03-10T11:47:59.006Z,11.27
2023-03-10T11:50:38.412Z,11.30
2023-03-10T11:53:14.940Z,11.53
2023-03-10T11:55:45.446Z,11.77
2023-03-10T11:58:26.145Z,11.82
2023-03-10T12:00:56.168Z,12.27
2023-03-10T12:03:43.496Z,13.09
2023-03-10T12:06:17.409Z,13.53
2023-03-10T12:08:48.069Z,13.90
2023-03-10T12:11:19.808Z,15.18
2023-03-10T12:13:54.023Z,16.36
2023-03-10T12:16:27.280Z,17.36
2023-03-10T12:18:56.610Z,17.96
2023-03-10T12:21:28.340Z,18.34
2023-03-10T12:23:58.724Z,18.66
2023-03-10T12:26:59.308Z,19.09
2023-03-10T12:29:41.840Z,18.77
2023-03-10T12:32:47.656Z,19.00
2023-03-10T12:35:45.015Z,19.21
2023-03-10T12:38:30.736Z,18.78
2023-03-10T12:41:01.553Z,18.71
2023-03-10T12:44:03.985Z,18.25
2023-03-10T12:46:45.525Z,17.85
2023-03-10T12:49:33.267Z,17.44
2023-03-10T12:52:19.259Z,17.06
2023-03-10T12:54:56.032Z,16.96
2023-03-10T12:57:32.403Z,17.26
2023-03-10T13:00:06.969Z,17.47
2023-03-10T13:02:49.336Z,17.46
2023-03-10T13:05:23.364Z,17.10
2023-03-10T13:07:56.000Z,16.75
2023-03-10T13:10:27.370Z,16.60
2023-03-10T13:13:01.072Z,16.21
2023-03-10T13:15:31.377Z,15.89
2023-03-10T13:18:19.903Z,15.71
2023-03-10T13:20:49.470Z,15.74
2023-03-10T13:23:24.166Z,15.94
2023-03-10T13:25:55.828Z,16.28
2023-03-10T13:28:25.481Z,16.25
2023-03-10T13:31:10.893Z,16.38
2023-03-10T13:33:52.261Z,16.49
2023-03-10T13:36:32.132Z,16.56
2023-03-10T13:39:03.372Z,16.36
2023-03-10T13:41:37.768Z,16.08
2023-03-10T13:44:06.545Z,15.76
2023-03-10T13:46:36.632Z,15.57
2023-03-10T13:49:09.311Z,15.29
2023-03-10T13:51:39.204Z,15.14
2023-03-10T13:54:20.988Z,15.05
2023-03-10T13:56:52.256Z,14.98
2023-03-10T13:59:24.740Z,14.85
2023-03-10T14:01:55.758Z,14.72
2023-03-10T14:04:42.314Z,14.65
2023-03-10T14:07:12.793Z,14.50
2023-03-10T14:09:42.416Z,14.39
2023-03-10T14:12:12.651Z,14.24
2023-03-10T14:14:42.388Z,14.15
2023-03-10T14:17:31.270Z,14.05
2023-03-10T14:20:02.246Z,13.92
2023-03-10T14:22:41.563Z,13.84
2023-03-10T14:25:15.065Z,13.73
2023-03-10T14:27:45.820Z,13.62
2023-03-10T14:30:33.423Z,13.49
2023-03-10T14:33:03.184Z,13.40
2023-03-10T14:35:33.377Z,13.33
2023-03-10T14:38:02.529Z,13.25
2023-03-10T14:40:34.063Z,13.23
2023-03-10T14:43:05.089Z,13.21
2023-03-10T14:45:41.108Z,13.14
2023-03-10T14:48:15.700Z,13.07
2023-03-10T14:50:46.934Z,13.00
2023-03-10T14:53:19.285Z,12.99
2023-03-10T14:55:49.798Z,13.06
2023-03-10T14:58:21.564Z,13.12
2023-03-10T15:00:50.768Z,13.12
2023-03-10T15:03:20.261Z,13.13
2023-03-10T15:05:50.510Z,13.21
2023-03-10T15:08:19.918Z,13.30
2023-03-10T15:10:52.348Z,13.38
2023-03-10T15:13:24.121Z,13.48
2023-03-10T15:15:53.680Z,13.50
2023-03-10T15:18:24.788Z,13.47
2023-03-10T15:20:59.312Z,13.42
2023-03-10T15:23:28.403Z,13.43
2023-03-10T15:25:58.156Z,13.40
2023-03-10T15:28:27.063Z,13.36
2023-03-10T15:30:56.503Z,13.31
2023-03-10T15:33:26.058Z,13.21
2023-03-10T15:35:56.273Z,13.12
2023-03-10T15:38:25.001Z,13.13
2023-03-10T15:40:53.581Z,13.10
2023-03-10T15:43:22.408Z,13.06
2023-03-10T15:45:52.640Z,13.07
2023-03-10T15:48:22.045Z,13.00
2023-03-10T15:50:52.670Z,12.90
2023-03-10T15:53:23.517Z,12.80
2023-03-10T15:55:52.804Z,12.73
2023-03-10T15:58:22.753Z,12.62
2023-03-10T16:00:51.393Z,12.47
2023-03-10T16:03:20.382Z,12.37
2023-03-10T16:05:49.710Z,12.30
2023-03-10T16:08:23.724Z,12.25
2023-03-10T16:10:54.195Z,12.20
2023-03-10T16:13:24.009Z,12.14
2023-03-10T16:15:55.149Z,12.08
2023-03-10T16:18:25.040Z,12.00
2023-03-10T16:20:58.856Z,11.95
2023-03-10T16:23:30.578Z,11.93
2023-03-10T16:26:11.266Z,11.85
2023-03-10T16:28:42.624Z,11.79
2023-03-10T16:31:13.001Z,11.70
2023-03-10T16:33:44.124Z,11.62
2023-03-10T16:36:16.784Z,11.52
2023-03-10T16:38:47.738Z,11.49
2023-03-10T16:41:16.952Z,11.43
2023-03-10T16:43:46.668Z,11.34
2023-03-10T16:46:20.106Z,11.24
2023-03-10T16:48:49.988Z,11.11
2023-03-10T16:51:23.112Z,11.01
2023-03-10T16:53:54.620Z,10.91
2023-03-10T16:56:25.381Z,10.83
2023-03-10T16:58:54.625Z,10.80
2023-03-10T17:01:24.409Z,10.80
2023-03-10T17:03:53.674Z,10.83
2023-03-10T17:06:26.735Z,10.89
2023-03-10T17:08:57.800Z,10.88
2023-03-10T17:11:28.777Z,10.88
2023-03-10T17:14:00.886Z,10.82
2023-03-10T17:16:32.123Z,10.74
2023-03-10T17:19:03.227Z,10.67
2023-03-10T17:21:36.203Z,10.63
2023-03-10T17:24:08.740Z,10.64
2023-03-10T17:26:38.095Z,10.68
2023-03-10T17:29:06.960Z,10.75
2023-03-10T17:31:35.606Z,10.87
2023-03-10T17:34:06.202Z,10.94
2023-03-10T17:36:35.916Z,11.01
2023-03-10T17:39:06.806Z,11.00
2023-03-10T17:41:37.154Z,10.97
2023-03-10T17:44:06.078Z,10.92
2023-03-10T17:46:35.170Z,10.90
2023-03-10T17:49:03.877Z,10.87
2023-03-10T17:51:32.989Z,10.83
2023-03-10T17:54:03.287Z,10.72
2023-03-10T17:56:33.209Z,10.58
2023-03-10T17:59:02.281Z,10.42
2023-03-10T18:01:33.729Z,10.18
2023-03-10T18:04:03.652Z,9.96
2023-03-10T18:06:36.299Z,9.84
2023-03-10T18:09:07.250Z,9.95
2023-03-10T18:11:38.110Z,10.06
2023-03-10T18:14:07.365Z,10.01
2023-03-10T18:16:38.628Z,9.96
2023-03-10T18:19:10.553Z,9.93
2023-03-10T18:21:39.897Z,9.94
2023-03-10T18:24:08.948Z,9.82
2023-03-10T18:26:43.458Z,9.71
2023-03-10T18:29:12.936Z,9.64
2023-03-10T18:31:42.677Z,9.59
2023-03-10T18:34:13.728Z,9.57
2023-03-10T18:36:42.624Z,9.51
2023-03-10T18:39:12.660Z,9.46
2023-03-10T18:41:43.030Z,9.39
2023-03-10T18:44:12.081Z,9.34
2023-03-10T18:46:40.946Z,9.27
2023-03-10T18:49:10.037Z,9.24
2023-03-10T18:51:38.799Z,9.21
2023-03-10T18:54:07.900Z,9.23
2023-03-10T18:56:37.888Z,9.26
2023-03-10T18:59:08.015Z,9.32
2023-03-10T19:01:36.839Z,9.33
2023-03-10T19:04:05.782Z,9.33
2023-03-10T19:06:35.486Z,9.32
2023-03-10T19:09:04.426Z,9.28
2023-03-10T19:11:37.665Z,9.24
2023-03-10T19:14:08.631Z,9.20
2023-03-10T19:16:40.005Z,9.16
2023-03-10T19:19:09.553Z,9.11
2023-03-10T19:21:39.327Z,9.07
2023-03-10T19:24:09.400Z,9.04
2023-03-10T19:26:38.400Z,9.01
2023-03-10T19:29:08.491Z,8.99
2023-03-10T19:31:37.480Z,8.99
2023-03-10T19:34:06.198Z,9.00
2023-03-10T19:36:36.213Z,8.96
2023-03-10T19:39:06.213Z,8.92
2023-03-10T19:41:34.841Z,8.89
2023-03-10T19:44:03.743Z,8.84
2023-03-10T19:46:34.835Z,8.82
2023-03-10T19:49:06.926Z,8.74
2023-03-10T19:51:35.934Z,8.65
2023-03-10T19:54:06.198Z,8.56
2023-03-10T19:56:35.296Z,8.50
2023-03-10T19:59:04.549Z,8.48
2023-03-10T20:01:37.444Z,8.46
2023-03-10T20:04:06.345Z,8.47
2023-03-10T20:06:37.889Z,8.49
2023-03-10T20:09:10.364Z,8.53
2023-03-10T20:11:40.070Z,8.55
2023-03-10T20:14:09.910Z,8.61
2023-03-10T20:16:40.686Z,8.62
2023-03-10T20:19:10.679Z,8.62
2023-03-10T20:21:39.455Z,8.64
2023-03-10T20:24:10.725Z,8.66
2023-03-10T20:26:41.172Z,8.68
2023-03-10T20:29:09.928Z,8.67
2023-03-10T20:31:40.844Z,8.63
2023-03-10T20:34:18.784Z,8.62
2023-03-10T20:36:50.578Z,8.64
2023-03-10T20:39:20.271Z,8.67
2023-03-10T20:41:49.481Z,8.71
2023-03-10T20:44:19.494Z,8.71
2023-03-10T20:46:50.316Z,8.69
2023-03-10T20:49:19.210Z,8.67
2023-03-10T20:51:48.972Z,8.66
2023-03-10T20:54:18.509Z,8.68
2023-03-10T20:56:49.120Z,8.65
2023-03-10T20:59:18.217Z,8.53
2023-03-10T21:01:48.424Z,8.46
2023-03-10T21:04:20.700Z,8.36
2023-03-10T21:06:52.105Z,8.34
2023-03-10T21:09:22.313Z,8.35
2023-03-10T21:11:52.675Z,8.37
2023-03-10T21:14:21.611Z,8.38
2023-03-10T21:16:50.921Z,8.37
2023-03-10T21:19:21.575Z,8.38
2023-03-10T21:21:50.739Z,8.43
2023-03-10T21:24:19.969Z,8.48
2023-03-10T21:26:48.914Z,8.57
2023-03-10T21:29:18.023Z,8.71
2023-03-10T21:31:47.345Z,8.97
2023-03-10T21:34:16.135Z,9.02
2023-03-10T21:36:46.672Z,8.90
2023-03-10T21:39:15.964Z,8.77
2023-03-10T21:41:45.166Z,8.70
2023-03-10T21:44:13.997Z,8.66
2023-03-10T21:46:42.883Z,8.67
2023-03-10T21:49:12.426Z,8.74
2023-03-10T21:51:41.318Z,8.79
2023-03-10T21:54:12.818Z,8.79
2023-03-10T21:56:41.788Z,8.81
2023-03-10T21:59:10.846Z,8.82
2023-03-10T22:01:40.410Z,8.82
2023-03-10T22:04:12.772Z,8.81
2023-03-10T22:06:42.014Z,8.80
2023-03-10T22:09:12.299Z,8.77
2023-03-10T22:11:41.090Z,8.72
2023-03-10T22:14:09.772Z,8.76
2023-03-10T22:16:38.295Z,8.76
2023-03-10T22:19:07.252Z,8.79
2023-03-10T22:21:36.425Z,8.81
2023-03-10T22:24:05.506Z,8.79
2023-03-10T22:26:36.500Z,8.80
2023-03-10T22:29:05.415Z,8.79
2023-03-10T22:31:34.307Z,8.74
2023-03-10T22:34:02.891Z,8.72
2023-03-10T22:36:31.985Z,8.66
2023-03-10T22:39:01.180Z,8.64
2023-03-10T22:41:30.422Z,8.59
2023-03-10T22:44:00.507Z,8.55
2023-03-10T22:46:30.225Z,8.51
2023-03-10T22:48:59.875Z,8.45
2023-03-10T22:51:29.108Z,8.42
2023-03-10T22:53:58.387Z,8.39
2023-03-10T22:56:27.689Z,8.37
2023-03-10T22:58:57.435Z,8.37
2023-03-10T23:01:28.043Z,8.34
2023-03-10T23:03:56.876Z,8.32
2023-03-10T23:06:29.429Z,8.38
2023-03-10T23:08:58.492Z,8.41
2023-03-10T23:11:28.822Z,8.38
2023-03-10T23:14:02.588Z,8.39
2023-03-10T23:16:36.558Z,8.38
2023-03-10T23:19:08.657Z,8.38
2023-03-10T23:21:38.059Z,8.35
2023-03-10T23:24:08.233Z,8.31
2023-03-10T23:26:37.815Z,8.29
2023-03-10T23:29:06.758Z,8.28
2023-03-10T23:31:37.590Z,8.21
2023-03-10T23:34:07.181Z,8.14
2023-03-10T23:36:36.318Z,8.13
2023-03-10T23:39:05.661Z,8.10
2023-03-10T23:41:34.690Z,8.06
2023-03-10T23:44:03.653Z,7.99
2023-03-10T23:46:32.625Z,7.92
2023-03-10T23:49:02.784Z,7.89
2023-03-10T23:51:31.398Z,7.86
2023-03-10T23:54:00.099Z,7.84
2023-03-10T23:56:28.454Z,7.82
2023-03-10T23:58:59.055Z,7.81
